Time;durP1;ratioP1;P1;durP2;ratioP2;P2;SDS_P1;SDS_P2;PMS_P1;PMS_P2;Temp;Humidity;BMP_temperature;BMP_pressure;BME280_temperature;BME280_humidity;BME280_pressure;Samples;Min_cycle;Max_cycle;Signal;HPM_P1;HPM_P2
2023/03/02 05:01:24;;;;;;;1.52;1.50;;;0.80;99.90;;;;;;5453479;23;20630;-68
2023/03/02 05:03:51;;;;;;;2.28;1.67;;;0.80;99.90;;;;;;4904247;29;20685;-69
2023/03/02 05:06:20;;;;;;;1.75;1.58;;;0.80;99.90;;;;;;4906389;29;20206;-67
2023/03/02 05:08:48;;;;;;;2.50;1.63;;;0.80;99.90;;;;;;4913074;29;20297;-69
2023/03/02 05:11:20;;;;;;;2.78;2.55;;;0.80;99.90;;;;;;4905228;29;20587;-69
2023/03/02 05:13:51;;;;;;;0.63;0.63;;;0.80;99.90;;;;;;4908875;29;20310;-68
2023/03/02 05:16:19;;;;;;;2.28;1.30;;;0.80;99.90;;;;;;4897279;29;20234;-68
2023/03/02 05:18:47;;;;;;;2.65;1.50;;;0.80;99.90;;;;;;4892690;29;20877;-68
2023/03/02 05:21:15;;;;;;;4.80;1.95;;;0.70;99.90;;;;;;4892318;29;20227;-67
2023/03/02 05:23:43;;;;;;;3.60;1.48;;;0.70;99.90;;;;;;4895970;29;20219;-67
2023/03/02 05:26:10;;;;;;;2.08;1.98;;;0.70;99.90;;;;;;4904775;29;20246;-69
2023/03/02 05:28:38;;;;;;;9.68;2.72;;;0.70;99.90;;;;;;4897528;29;20218;-68
2023/03/02 05:31:05;;;;;;;1.83;1.73;;;0.70;99.90;;;;;;4900514;29;20233;-68
2023/03/02 05:33:32;;;;;;;1.67;1.58;;;0.60;99.90;;;;;;4896598;29;20211;-68
2023/03/02 05:36:01;;;;;;;4.68;4.38;;;0.60;99.90;;;;;;4897513;29;20219;-68
2023/03/02 05:38:30;;;;;;;3.30;3.00;;;0.60;99.90;;;;;;4897477;29;20298;-69
2023/03/02 05:40:57;;;;;;;1.17;1.17;;;0.60;99.90;;;;;;4899479;29;20310;-68
2023/03/02 05:43:23;;;;;;;1.50;1.50;;;0.60;99.90;;;;;;4900702;29;20207;-68
2023/03/02 05:45:50;;;;;;;2.05;2.00;;;0.60;99.90;;;;;;4904008;29;20213;-68
2023/03/02 05:48:17;;;;;;;3.35;3.22;;;0.60;99.90;;;;;;4896910;29;20219;-69
2023/03/02 05:50:44;;;;;;;4.30;1.52;;;0.60;99.90;;;;;;4897856;29;20227;-68
2023/03/02 05:53:12;;;;;;;1.95;1.85;;;0.70;99.90;;;;;;4896949;29;20207;-69
2023/03/02 05:55:39;;;;;;;0.30;0.30;;;0.60;99.90;;;;;;4897417;29;20589;-67
2023/03/02 05:58:07;;;;;;;1.48;1.25;;;0.60;99.90;;;;;;4894925;29;20215;-67
2023/03/02 06:00:34;;;;;;;6.00;2.25;;;0.60;99.90;;;;;;4891534;29;20713;-68
2023/03/02 06:03:01;;;;;;;2.67;2.58;;;0.60;99.90;;;;;;4895141;29;20238;-66
2023/03/02 06:05:28;;;;;;;1.67;1.63;;;0.70;99.90;;;;;;4901418;29;20606;-68
2023/03/02 06:07:54;;;;;;;6.22;0.85;;;0.70;99.90;;;;;;4904293;29;20207;-68
2023/03/02 06:10:23;;;;;;;3.30;1.95;;;0.70;99.90;;;;;;4896594;29;20207;-67
2023/03/02 06:12:50;;;;;;;3.13;2.20;;;0.60;99.90;;;;;;4899523;29;20211;-68
2023/03/02 06:15:17;;;;;;;0.57;0.57;;;0.50;99.90;;;;;;4902169;29;20230;-69
2023/03/02 06:17:44;;;;;;;5.78;1.95;;;0.50;99.90;;;;;;4896319;29;20571;-68
2023/03/02 06:20:12;;;;;;;0.55;0.55;;;0.60;99.90;;;;;;4895812;29;20231;-69
2023/03/02 06:22:41;;;;;;;0.22;0.22;;;0.60;99.90;;;;;;4900953;29;20215;-68
2023/03/02 06:25:08;;;;;;;3.35;0.88;;;0.60;99.90;;;;;;4897623;29;20208;-68
2023/03/02 06:27:37;;;;;;;1.70;1.60;;;0.50;99.90;;;;;;4896533;29;20218;-69
2023/03/02 06:30:04;;;;;;;0.95;0.95;;;0.60;99.90;;;;;;4896585;29;20290;-68
2023/03/02 06:32:33;;;;;;;4.15;2.30;;;0.50;99.90;;;;;;4896044;29;20227;-69
2023/03/02 06:34:59;;;;;;;1.52;1.52;;;0.40;99.90;;;;;;4895341;29;21630;-69
2023/03/02 06:37:27;;;;;;;1.60;1.60;;;0.50;99.90;;;;;;4896856;29;20645;-68
2023/03/02 06:39:54;;;;;;;2.53;1.27;;;0.50;99.90;;;;;;4902113;29;20219;-69
2023/03/02 06:42:21;;;;;;;5.35;1.75;;;0.60;99.90;;;;;;4893790;29;20233;-69
2023/03/02 06:44:50;;;;;;;4.22;2.80;;;0.50;99.90;;;;;;4899392;29;20211;-69
2023/03/02 06:47:17;;;;;;;0.52;0.52;;;0.50;99.90;;;;;;4904344;29;20207;-69
2023/03/02 06:49:44;;;;;;;3.33;2.70;;;0.50;99.90;;;;;;4895077;29;20222;-68
2023/03/02 06:52:12;;;;;;;3.58;3.35;;;0.40;99.90;;;;;;4896978;29;20227;-68
2023/03/02 06:54:39;;;;;;;0.47;0.47;;;0.50;99.90;;;;;;4899532;29;20211;-68
2023/03/02 06:57:06;;;;;;;2.30;2.22;;;0.50;99.90;;;;;;4895648;29;20232;-69
2023/03/02 06:59:33;;;;;;;1.08;1.08;;;0.60;99.90;;;;;;4896165;29;20222;-68
2023/03/02 07:02:02;;;;;;;1.08;1.08;;;0.60;99.90;;;;;;4892593;29;20243;-69
2023/03/02 07:04:28;;;;;;;2.25;1.05;;;0.60;99.90;;;;;;4896445;29;20219;-69
2023/03/02 07:06:55;;;;;;;1.50;1.40;;;0.60;99.90;;;;;;4896297;29;20211;-69
2023/03/02 07:09:22;;;;;;;2.47;2.35;;;0.60;99.90;;;;;;4899594;29;20214;-69
2023/03/02 07:11:49;;;;;;;0.80;0.80;;;0.70;99.90;;;;;;4896511;29;20621;-65
2023/03/02 07:14:15;;;;;;;5.07;4.80;;;0.70;99.90;;;;;;4902138;29;20214;-69
2023/03/02 07:16:42;;;;;;;4.10;1.85;;;0.70;99.90;;;;;;4886755;29;20300;-70
2023/03/02 07:19:12;;;;;;;3.60;3.03;;;0.70;99.90;;;;;;4885516;29;20211;-67
2023/03/02 07:21:39;;;;;;;2.30;2.30;;;0.70;99.90;;;;;;4891289;29;20251;-68
2023/03/02 07:24:06;;;;;;;1.85;1.75;;;0.70;99.90;;;;;;4896355;29;20226;-70
2023/03/02 07:26:33;;;;;;;2.83;2.60;;;0.70;99.90;;;;;;4896397;29;21080;-69
2023/03/02 07:29:00;;;;;;;2.58;2.47;;;0.70;99.90;;;;;;4905175;29;20218;-70
2023/03/02 07:31:27;;;;;;;3.97;3.78;;;0.70;99.90;;;;;;4894806;29;20757;-70
2023/03/02 07:33:54;;;;;;;4.68;4.43;;;0.80;99.90;;;;;;4892601;29;20218;-70
2023/03/02 07:36:22;;;;;;;3.35;3.15;;;0.80;99.90;;;;;;4892218;29;20288;-70
2023/03/02 07:38:49;;;;;;;4.88;4.40;;;0.80;99.90;;;;;;4895188;29;20226;-70
2023/03/02 07:41:16;;;;;;;0.63;0.63;;;0.80;99.90;;;;;;4889457;29;20581;-69
2023/03/02 07:43:43;;;;;;;1.63;1.60;;;0.80;99.90;;;;;;4900436;29;20235;-71
2023/03/02 07:46:10;;;;;;;5.22;2.80;;;0.90;99.90;;;;;;4896301;29;20215;-69
2023/03/02 07:48:37;;;;;;;1.10;1.10;;;0.90;99.90;;;;;;4894526;29;20299;-70
2023/03/02 07:51:05;;;;;;;2.05;1.95;;;0.80;99.90;;;;;;4896600;29;20589;-68
2023/03/02 07:53:33;;;;;;;3.20;2.08;;;0.90;99.90;;;;;;4890586;29;20294;-68
2023/03/02 07:56:01;;;;;;;2.58;2.47;;;1.00;99.90;;;;;;4896862;29;20215;-67
2023/03/02 07:58:28;;;;;;;6.05;2.83;;;1.10;99.90;;;;;;4898659;29;20206;-66
2023/03/02 08:00:55;;;;;;;3.40;2.45;;;1.10;99.90;;;;;;4900437;29;20235;-67
2023/03/02 08:03:21;;;;;;;7.38;3.58;;;1.10;99.90;;;;;;4895533;29;20584;-67
2023/03/02 08:05:48;;;;;;;2.25;2.15;;;1.10;99.90;;;;;;4906275;29;20215;-67
2023/03/02 08:08:15;;;;;;;8.35;2.97;;;1.20;99.90;;;;;;4892966;29;20215;-67
2023/03/02 08:10:43;;;;;;;0.65;0.65;;;1.30;99.90;;;;;;4900797;29;20222;-68
2023/03/02 08:13:09;;;;;;;1.73;1.73;;;1.30;99.90;;;;;;4912977;29;20211;-69
2023/03/02 08:15:36;;;;;;;1.02;0.98;;;1.30;99.90;;;;;;4902144;29;20294;-68
2023/03/02 08:18:03;;;;;;;0.75;0.52;;;1.30;99.90;;;;;;4888748;29;21022;-69
2023/03/02 08:20:30;;;;;;;0.70;0.70;;;1.30;99.90;;;;;;4902626;29;20314;-70
2023/03/02 08:22:57;;;;;;;5.65;3.05;;;1.20;99.90;;;;;;4897233;29;20239;-70
2023/03/02 08:25:23;;;;;;;0.60;0.60;;;1.20;99.90;;;;;;4888370;29;20218;-71
2023/03/02 08:27:51;;;;;;;1.55;1.40;;;1.20;99.90;;;;;;4896907;29;20641;-68
2023/03/02 08:30:19;;;;;;;3.58;3.33;;;1.30;99.90;;;;;;4909997;29;20577;-69
2023/03/02 08:32:45;;;;;;;4.13;1.88;;;1.30;99.90;;;;;;4899844;29;20683;-68
2023/03/02 08:35:12;;;;;;;3.92;3.67;;;1.40;99.90;;;;;;4898450;29;20212;-69
2023/03/02 08:37:39;;;;;;;5.10;4.15;;;1.40;99.90;;;;;;4888202;29;20219;-70
2023/03/02 08:40:08;;;;;;;2.05;1.88;;;1.40;99.90;;;;;;4890413;29;20219;-69
2023/03/02 08:42:34;;;;;;;2.60;2.47;;;1.40;99.90;;;;;;4900963;29;20317;-68
2023/03/02 08:45:03;;;;;;;5.72;2.28;;;1.30;99.90;;;;;;4901177;29;20215;-69
2023/03/02 08:47:29;;;;;;;2.00;1.90;;;1.30;99.90;;;;;;4904678;29;20235;-69
2023/03/02 08:49:56;;;;;;;3.60;1.75;;;1.40;99.90;;;;;;4890103;29;20528;-67
2023/03/02 08:52:23;;;;;;;3.05;2.85;;;1.40;99.90;;;;;;4886975;29;20314;-67
2023/03/02 08:54:50;;;;;;;1.60;1.20;;;1.50;99.90;;;;;;4901001;29;20306;-70
2023/03/02 08:57:16;;;;;;;4.95;4.57;;;1.50;99.90;;;;;;4901612;29;20475;-68
2023/03/02 08:59:43;;;;;;;4.30;3.78;;;1.60;99.90;;;;;;4902655;29;20211;-68
2023/03/02 09:02:12;;;;;;;5.80;4.00;;;1.80;99.90;;;;;;4911267;29;20590;-69
2023/03/02 09:04:39;;;;;;;3.72;2.42;;;1.90;99.90;;;;;;4915023;29;20215;-67
2023/03/02 09:07:05;;;;;;;3.90;3.70;;;1.90;99.90;;;;;;4908777;29;20234;-68
2023/03/02 09:09:32;;;;;;;2.83;2.63;;;1.90;99.90;;;;;;4893860;29;20210;-69
2023/03/02 09:11:59;;;;;;;3.40;3.05;;;1.70;99.90;;;;;;4897601;29;20227;-70
2023/03/02 09:14:26;;;;;;;7.75;6.03;;;1.60;99.90;;;;;;4903541;29;20222;-68
2023/03/02 09:16:53;;;;;;;10.13;3.10;;;1.60;99.90;;;;;;4916348;29;20211;-67
2023/03/02 09:19:21;;;;;;;2.53;1.73;;;1.70;99.90;;;;;;4916110;29;20202;-68
2023/03/02 09:21:48;;;;;;;1.35;1.35;;;1.70;99.90;;;;;;4917289;29;20235;-68
2023/03/02 09:24:15;;;;;;;3.38;2.63;;;1.70;99.90;;;;;;4915160;29;20247;-68
2023/03/02 09:26:42;;;;;;;2.33;2.15;;;1.60;99.90;;;;;;4910265;29;20209;-70
2023/03/02 09:29:09;;;;;;;1.98;1.88;;;1.60;99.90;;;;;;4908813;29;20207;-69
2023/03/02 09:31:36;;;;;;;7.97;4.65;;;1.60;99.90;;;;;;4897666;29;20243;-67
2023/03/02 09:34:03;;;;;;;2.78;2.42;;;1.70;99.90;;;;;;4893312;29;20719;-69
2023/03/02 09:36:31;;;;;;;8.02;3.58;;;1.70;99.90;;;;;;4895102;29;20331;-70
2023/03/02 09:38:58;;;;;;;3.50;1.75;;;1.80;99.90;;;;;;4907377;29;20216;-70
2023/03/02 09:41:43;;;;;;;2.63;2.42;;;1.80;99.90;;;;;;4894629;29;20618;-68
2023/03/02 09:44:29;;;;;;;0.82;0.82;;;1.90;99.90;;;;;;4905007;29;20571;-69
2023/03/02 09:47:00;;;;;;;2.03;1.92;;;1.90;99.90;;;;;;4897671;29;20207;-70
2023/03/02 09:49:32;;;;;;;3.25;3.05;;;1.90;99.90;;;;;;4891836;29;20212;-67
2023/03/02 09:52:30;;;;;;;1.75;1.15;;;1.90;99.90;;;;;;4905218;29;20622;-70
2023/03/02 09:55:00;;;;;;;4.78;3.70;;;1.90;99.90;;;;;;4894867;29;20215;-69
2023/03/02 09:57:31;;;;;;;7.22;5.65;;;1.90;99.90;;;;;;4896313;29;20218;-67
2023/03/02 10:00:02;;;;;;;5.63;3.20;;;1.90;99.90;;;;;;4903733;29;20210;-71
2023/03/02 10:02:32;;;;;;;5.80;5.32;;;1.90;99.90;;;;;;4893679;29;20231;-70
2023/03/02 10:05:02;;;;;;;17.48;3.28;;;2.00;99.90;;;;;;4897637;29;20214;-70
2023/03/02 10:07:32;;;;;;;3.22;3.03;;;2.10;99.90;;;;;;4891899;29;20672;-69
2023/03/02 10:10:03;;;;;;;4.20;2.47;;;2.20;99.90;;;;;;4891655;29;20291;-69
2023/03/02 10:12:44;;;;;;;7.28;4.35;;;2.20;99.90;;;;;;4891313;29;20235;-69
2023/03/02 10:15:15;;;;;;;2.33;2.22;;;2.30;99.90;;;;;;4889680;29;20211;-70
2023/03/02 10:17:56;;;;;;;8.70;3.53;;;2.30;99.90;;;;;;4896465;29;20211;-69
2023/03/02 10:20:28;;;;;;;2.95;2.75;;;2.10;99.90;;;;;;4890934;29;20207;-70
2023/03/02 10:23:03;;;;;;;3.25;1.92;;;2.10;99.90;;;;;;4902339;29;20219;-69
2023/03/02 10:25:37;;;;;;;3.85;3.55;;;2.30;99.90;;;;;;4907035;29;20213;-68
2023/03/02 10:28:18;;;;;;;2.40;2.30;;;2.30;99.90;;;;;;4894967;29;20211;-71
2023/03/02 10:30:48;;;;;;;2.15;1.50;;;2.40;99.90;;;;;;4894973;29;20231;-71
2023/03/02 10:33:17;;;;;;;2.85;2.75;;;2.50;99.90;;;;;;4901375;29;20226;-69
2023/03/02 10:35:47;;;;;;;4.03;3.60;;;2.50;99.90;;;;;;4899187;29;20215;-69
2023/03/02 10:38:18;;;;;;;8.13;3.42;;;2.40;99.90;;;;;;4894356;29;20227;-70
2023/03/02 10:40:47;;;;;;;2.67;2.47;;;2.30;99.90;;;;;;4905417;29;20242;-69
2023/03/02 10:43:18;;;;;;;2.22;2.13;;;2.20;99.90;;;;;;4896141;29;20305;-70
2023/03/02 10:45:45;;;;;;;9.25;2.70;;;2.30;99.90;;;;;;4898156;29;20270;-69
2023/03/02 10:48:13;;;;;;;15.32;3.60;;;2.10;99.90;;;;;;4904624;29;20214;-70
2023/03/02 10:50:43;;;;;;;2.58;2.47;;;2.30;99.90;;;;;;4902426;29;20310;-70
2023/03/02 10:53:17;;;;;;;6.47;2.03;;;2.30;99.90;;;;;;4896982;29;20202;-70
2023/03/02 10:55:47;;;;;;;4.40;2.20;;;2.40;99.90;;;;;;4894603;29;20213;-69
2023/03/02 10:58:24;;;;;;;3.35;3.25;;;2.40;99.90;;;;;;4900329;29;20230;-70
2023/03/02 11:00:59;;;;;;;1.25;1.25;;;2.50;99.90;;;;;;4894964;29;20248;-71
2023/03/02 11:04:03;;;;;;;5.45;2.20;;;2.50;99.90;;;;;;4901532;29;20245;-70
2023/03/02 11:06:30;;;;;;;8.63;1.98;;;2.40;99.90;;;;;;4893985;29;20629;-70
2023/03/02 11:09:04;;;;;;;5.88;3.20;;;2.50;99.90;;;;;;4899150;29;20211;-68
2023/03/02 11:11:32;;;;;;;3.72;3.35;;;2.60;99.90;;;;;;4905012;29;20219;-70
2023/03/02 11:14:08;;;;;;;5.47;2.75;;;2.60;99.90;;;;;;4894941;29;20207;-69
2023/03/02 11:16:46;;;;;;;3.70;2.67;;;2.60;99.90;;;;;;4887972;29;20207;-70
2023/03/02 11:19:16;;;;;;;7.05;2.10;;;2.60;99.90;;;;;;4897209;29;20191;-69
2023/03/02 11:21:47;;;;;;;7.75;2.67;;;2.70;99.90;;;;;;4897031;29;20248;-71
2023/03/02 11:24:19;;;;;;;6.75;2.20;;;2.70;99.90;;;;;;4893848;29;20211;-71
2023/03/02 11:26:50;;;;;;;8.00;4.55;;;2.60;99.90;;;;;;4898916;29;20672;-69
2023/03/02 11:29:29;;;;;;;9.20;3.70;;;2.40;99.90;;;;;;4892880;29;20207;-70
2023/03/02 11:32:00;;;;;;;2.60;2.35;;;2.50;99.90;;;;;;4902387;29;20250;-69
2023/03/02 11:34:33;;;;;;;4.38;4.00;;;2.70;99.90;;;;;;4894711;29;20203;-69
2023/03/02 11:37:09;;;;;;;3.38;3.25;;;2.90;99.90;;;;;;4894438;29;20218;-69
2023/03/02 11:39:50;;;;;;;16.33;4.65;;;3.00;99.90;;;;;;4902919;29;20219;-69
2023/03/02 11:42:21;;;;;;;7.82;3.63;;;3.00;99.90;;;;;;4900647;29;20756;-70
2023/03/02 11:44:48;;;;;;;7.28;3.70;;;3.00;99.90;;;;;;4896678;29;20212;-69
2023/03/02 11:47:17;;;;;;;4.90;4.45;;;3.00;99.90;;;;;;4900666;29;20579;-70
2023/03/02 11:49:49;;;;;;;6.57;5.88;;;3.00;99.90;;;;;;4905119;29;20222;-69
2023/03/02 11:52:20;;;;;;;2.13;2.03;;;3.00;99.90;;;;;;4897866;29;20232;-69
2023/03/02 11:54:54;;;;;;;2.97;2.70;;;2.90;99.90;;;;;;4903040;29;20586;-69
2023/03/02 11:57:28;;;;;;;4.80;3.17;;;2.80;99.90;;;;;;4897330;29;20316;-69
2023/03/02 11:59:57;;;;;;;5.00;4.70;;;1.30;99.90;;;;;;4892967;29;20234;-67
2023/03/02 12:02:24;;;;;;;5.47;3.42;;;2.80;99.90;;;;;;4904190;29;20222;-69
2023/03/02 12:05:03;;;;;;;2.58;2.42;;;2.80;99.90;;;;;;4887848;29;20253;-67
2023/03/02 12:07:29;;;;;;;2.67;2.58;;;2.60;99.90;;;;;;4894974;29;20266;-68
2023/03/02 12:10:01;;;;;;;10.20;4.82;;;2.60;99.90;;;;;;4891448;29;20468;-69
2023/03/02 12:12:39;;;;;;;5.22;4.65;;;2.60;99.90;;;;;;4896175;29;20223;-65
2023/03/02 12:15:29;;;;;;;2.33;2.20;;;2.60;99.90;;;;;;4902072;29;20211;-65
2023/03/02 12:17:55;;;;;;;2.58;2.47;;;2.70;99.90;;;;;;4904601;29;20211;-65
2023/03/02 12:20:26;;;;;;;6.43;4.60;;;2.80;99.90;;;;;;4900341;29;20650;-65
2023/03/02 12:22:53;;;;;;;3.50;2.83;;;2.70;99.90;;;;;;4893780;29;20226;-65
2023/03/02 12:25:39;;;;;;;4.95;4.75;;;2.70;99.90;;;;;;4895634;29;20206;-66
2023/03/02 12:28:05;;;;;;;4.35;3.08;;;2.70;99.90;;;;;;4897692;29;20215;-66
2023/03/02 12:30:32;;;;;;;4.47;3.13;;;2.60;99.90;;;;;;4890853;29;20218;-67
2023/03/02 12:33:03;;;;;;;3.45;3.20;;;2.60;99.90;;;;;;4886327;29;20215;-66
2023/03/02 12:35:31;;;;;;;8.15;5.75;;;2.60;99.90;;;;;;4891190;29;20215;-66
2023/03/02 12:38:01;;;;;;;2.50;2.20;;;2.80;99.90;;;;;;4908344;29;20598;-65
2023/03/02 12:40:38;;;;;;;1.80;1.70;;;2.80;99.90;;;;;;4893385;29;20226;-65
2023/03/02 12:43:35;;;;;;;5.13;4.40;;;2.80;99.90;;;;;;4901933;29;20218;-66
2023/03/02 12:46:28;;;;;;;4.03;3.35;;;2.70;99.90;;;;;;4839099;29;20214;-66
2023/03/02 12:49:02;;;;;;;3.83;3.55;;;2.70;99.90;;;;;;4889294;29;20293;-66
2023/03/02 12:51:32;;;;;;;3.83;3.55;;;2.80;99.90;;;;;;4894178;29;20271;-66
2023/03/02 12:54:06;;;;;;;3.90;3.38;;;2.80;99.90;;;;;;4898639;29;20221;-65
2023/03/02 12:56:34;;;;;;;6.20;3.92;;;2.80;99.90;;;;;;4893423;29;21540;-66
2023/03/02 12:59:01;;;;;;;5.35;3.67;;;2.90;99.90;;;;;;4892695;29;20223;-66
2023/03/02 13:01:30;;;;;;;2.42;2.33;;;3.00;99.90;;;;;;4893015;29;20254;-66
2023/03/02 13:03:57;;;;;;;5.05;4.57;;;3.10;99.90;;;;;;4905140;29;20237;-67
2023/03/02 13:06:27;;;;;;;4.32;2.13;;;3.10;99.90;;;;;;4898999;29;20218;-67
2023/03/02 13:08:56;;;;;;;1.77;1.05;;;3.10;99.90;;;;;;4902347;29;20223;-68
2023/03/02 13:11:27;;;;;;;9.40;4.28;;;3.10;99.90;;;;;;4901614;29;20234;-68
2023/03/02 13:13:55;;;;;;;6.07;2.67;;;3.10;99.90;;;;;;4904005;29;20536;-68
2023/03/02 13:16:25;;;;;;;2.60;2.40;;;3.10;99.90;;;;;;4901503;29;20223;-69
2023/03/02 13:18:57;;;;;;;1.70;1.58;;;3.20;99.90;;;;;;4895693;29;20349;-68
2023/03/02 13:21:30;;;;;;;1.85;1.75;;;3.20;99.90;;;;;;4890755;29;20232;-68
2023/03/02 13:23:56;;;;;;;4.53;3.40;;;3.20;99.90;;;;;;4895608;29;20245;-68
2023/03/02 13:26:28;;;;;;;2.83;2.58;;;3.20;99.90;;;;;;4905075;29;20541;-68
2023/03/02 13:29:05;;;;;;;5.93;2.17;;;3.30;99.90;;;;;;4902919;29;20217;-68
2023/03/02 13:31:32;;;;;;;12.70;5.05;;;3.30;99.90;;;;;;4901655;29;20222;-69
2023/03/02 13:33:59;;;;;;;6.13;4.70;;;3.20;99.90;;;;;;4902656;29;20203;-67
2023/03/02 13:36:29;;;;;;;4.93;4.50;;;3.20;99.90;;;;;;4885382;29;20230;-69
2023/03/02 13:38:59;;;;;;;6.15;2.85;;;3.20;99.90;;;;;;4901749;29;20220;-68
2023/03/02 13:41:27;;;;;;;2.58;2.33;;;3.20;99.90;;;;;;4906717;29;20253;-68
2023/03/02 13:43:55;;;;;;;2.55;2.13;;;3.20;99.90;;;;;;4898992;29;20242;-69
2023/03/02 13:46:28;;;;;;;3.08;2.47;;;3.30;99.90;;;;;;4901569;29;20388;-68
2023/03/02 13:48:56;;;;;;;7.13;2.50;;;3.30;99.90;;;;;;4898453;29;22409;-69
2023/03/02 13:51:24;;;;;;;4.38;3.10;;;3.40;99.90;;;;;;4903951;29;20306;-68
2023/03/02 13:53:54;;;;;;;4.72;4.35;;;3.40;99.90;;;;;;4909071;29;20262;-69
2023/03/02 13:56:24;;;;;;;9.77;5.00;;;3.40;99.90;;;;;;4902632;29;20210;-68
2023/03/02 13:58:51;;;;;;;3.40;2.70;;;3.40;99.90;;;;;;4908914;29;20659;-68
2023/03/02 14:01:18;;;;;;;3.22;3.10;;;3.40;99.90;;;;;;4907371;29;20234;-69
2023/03/02 14:03:46;;;;;;;4.70;4.00;;;3.40;99.90;;;;;;4907933;29;20230;-70
2023/03/02 14:06:13;;;;;;;8.13;5.30;;;3.50;99.90;;;;;;4895613;29;20214;-68
2023/03/02 14:08:39;;;;;;;4.20;3.85;;;3.50;99.90;;;;;;4898970;29;20216;-68
2023/03/02 14:11:07;;;;;;;2.65;2.47;;;3.40;99.90;;;;;;4901895;29;20230;-70
2023/03/02 14:13:37;;;;;;;5.18;4.05;;;3.50;99.90;;;;;;4900506;29;20223;-69
2023/03/02 14:16:05;;;;;;;7.50;4.05;;;3.50;99.90;;;;;;4899371;29;20214;-70
2023/03/02 14:18:37;;;;;;;3.42;2.65;;;3.50;99.90;;;;;;4896906;29;20283;-70
2023/03/02 14:21:09;;;;;;;5.40;4.22;;;3.50;99.90;;;;;;4893480;29;20231;-70
2023/03/02 14:23:35;;;;;;;3.40;3.10;;;3.60;99.90;;;;;;4896300;29;20227;-69
2023/03/02 14:26:12;;;;;;;7.15;3.63;;;3.60;99.90;;;;;;4897864;29;20219;-67
2023/03/02 14:28:38;;;;;;;5.35;4.65;;;3.60;99.90;;;;;;4906664;29;20214;-69
2023/03/02 14:31:05;;;;;;;3.83;3.20;;;3.60;99.90;;;;;;4893550;29;20656;-69
2023/03/02 14:33:33;;;;;;;3.30;3.00;;;3.60;99.90;;;;;;4901293;29;20202;-69
2023/03/02 14:36:00;;;;;;;4.88;3.88;;;3.60;99.90;;;;;;4908235;29;20283;-70
2023/03/02 14:38:28;;;;;;;3.08;2.90;;;3.50;99.90;;;;;;4904984;29;20657;-68
2023/03/02 14:40:55;;;;;;;5.07;4.63;;;3.50;99.90;;;;;;4904431;29;20698;-69
2023/03/02 14:43:24;;;;;;;4.57;4.07;;;3.40;99.90;;;;;;4900655;29;20222;-69
2023/03/02 14:45:51;;;;;;;2.28;2.08;;;3.40;99.90;;;;;;4896707;29;20284;-68
2023/03/02 14:48:18;;;;;;;9.48;2.88;;;3.40;99.90;;;;;;4898345;29;20234;-68
2023/03/02 14:50:48;;;;;;;4.28;4.10;;;3.30;99.90;;;;;;4894410;29;20227;-69
2023/03/02 14:53:18;;;;;;;10.77;3.47;;;3.30;99.90;;;;;;4891660;29;20239;-69
2023/03/02 14:55:47;;;;;;;2.97;2.75;;;3.20;99.90;;;;;;4896205;29;20215;-69
2023/03/02 14:58:17;;;;;;;7.00;4.13;;;3.10;99.90;;;;;;4896209;29;20216;-69
2023/03/02 15:00:44;;;;;;;3.97;2.80;;;3.20;99.90;;;;;;4895915;29;20235;-70
2023/03/02 15:03:15;;;;;;;4.95;4.22;;;3.20;99.90;;;;;;4897946;29;20648;-70
2023/03/02 15:05:42;;;;;;;2.10;1.80;;;3.30;99.90;;;;;;4897514;29;20207;-68
2023/03/02 15:08:14;;;;;;;5.75;5.28;;;3.40;99.90;;;;;;4891961;29;20298;-69
2023/03/02 15:10:42;;;;;;;6.10;3.33;;;3.40;99.90;;;;;;4900534;29;20235;-69
2023/03/02 15:13:12;;;;;;;3.95;3.65;;;3.40;99.90;;;;;;4905007;29;20687;-70
2023/03/02 15:15:40;;;;;;;5.18;3.75;;;3.50;99.90;;;;;;4896637;29;20366;-69
2023/03/02 15:18:07;;;;;;;4.03;3.78;;;3.50;99.90;;;;;;4905546;29;20206;-67
2023/03/02 15:20:34;;;;;;;4.70;3.88;;;3.50;99.90;;;;;;4899313;29;20232;-66
2023/03/02 15:23:01;;;;;;;6.35;3.15;;;3.50;99.90;;;;;;4901359;29;20237;-68
2023/03/02 15:25:28;;;;;;;8.25;3.85;;;3.50;99.90;;;;;;4903088;29;20211;-69
2023/03/02 15:27:56;;;;;;;4.55;2.70;;;3.50;99.90;;;;;;4896649;29;20215;-71
2023/03/02 15:30:29;;;;;;;2.42;2.22;;;3.60;99.90;;;;;;4896990;29;20207;-69
2023/03/02 15:32:57;;;;;;;10.15;5.75;;;3.50;99.90;;;;;;4893315;29;20203;-70
2023/03/02 15:35:23;;;;;;;4.63;4.35;;;3.50;99.90;;;;;;4903608;29;20235;-69
2023/03/02 15:37:50;;;;;;;7.70;3.50;;;3.50;99.90;;;;;;4908481;29;20215;-71
2023/03/02 15:40:17;;;;;;;2.72;2.53;;;3.50;99.90;;;;;;4901006;29;20212;-69
2023/03/02 15:42:44;;;;;;;4.10;3.45;;;3.50;99.90;;;;;;4902064;29;20215;-70
2023/03/02 15:45:11;;;;;;;4.47;2.58;;;3.40;99.90;;;;;;4904014;29;20610;-68
2023/03/02 15:47:39;;;;;;;4.45;3.22;;;3.40;99.90;;;;;;4897833;29;20211;-70
2023/03/02 15:50:06;;;;;;;5.28;3.83;;;3.40;99.90;;;;;;4906068;29;20660;-69
2023/03/02 15:52:33;;;;;;;8.93;6.25;;;3.40;99.90;;;;;;4909673;29;20226;-68
2023/03/02 15:55:00;;;;;;;5.93;3.22;;;3.40;99.90;;;;;;4898682;29;20604;-70
2023/03/02 15:57:26;;;;;;;4.68;2.45;;;3.40;99.90;;;;;;4911901;29;20211;-70
2023/03/02 15:59:53;;;;;;;10.88;3.17;;;3.40;99.90;;;;;;4905152;29;20204;-69
2023/03/02 16:02:21;;;;;;;4.10;3.80;;;3.30;99.90;;;;;;4903496;29;20788;-69
2023/03/02 16:04:49;;;;;;;2.33;2.13;;;3.30;99.90;;;;;;4895406;29;20235;-69
2023/03/02 16:07:16;;;;;;;7.07;4.28;;;3.20;99.90;;;;;;4895743;29;20638;-71
2023/03/02 16:09:44;;;;;;;1.50;1.40;;;3.10;99.90;;;;;;4902645;29;20221;-69
2023/03/02 16:12:10;;;;;;;9.27;4.72;;;3.20;99.90;;;;;;4894271;29;20245;-70
2023/03/02 16:14:37;;;;;;;4.95;3.03;;;3.20;99.90;;;;;;4906771;29;20207;-69
2023/03/02 16:17:04;;;;;;;1.90;1.80;;;3.20;99.90;;;;;;4899978;29;20222;-70
2023/03/02 16:19:31;;;;;;;16.35;4.13;;;3.20;99.90;;;;;;4889826;29;20585;-69
2023/03/02 16:21:59;;;;;;;2.38;2.25;;;3.20;99.90;;;;;;4901595;29;20599;-69
2023/03/02 16:24:25;;;;;;;4.70;4.28;;;3.30;99.90;;;;;;4892139;29;20627;-69
2023/03/02 16:26:53;;;;;;;3.20;2.78;;;3.30;99.90;;;;;;4893306;29;20211;-70
2023/03/02 16:29:20;;;;;;;3.58;3.28;;;3.30;99.90;;;;;;4890629;29;20211;-69
2023/03/02 16:31:47;;;;;;;2.78;2.70;;;3.30;99.90;;;;;;4894613;29;20236;-70
2023/03/02 16:34:14;;;;;;;2.67;2.47;;;3.30;99.90;;;;;;4898280;29;20203;-70
2023/03/02 16:36:41;;;;;;;12.38;3.13;;;3.30;99.90;;;;;;4904235;29;20214;-70
2023/03/02 16:39:11;;;;;;;8.18;5.65;;;3.20;99.90;;;;;;4888749;29;20207;-70
2023/03/02 16:41:42;;;;;;;4.15;3.75;;;3.30;99.90;;;;;;4896100;29;20223;-69
2023/03/02 16:44:12;;;;;;;2.72;2.63;;;3.20;99.90;;;;;;4895558;29;20231;-69
2023/03/02 16:46:42;;;;;;;3.67;2.13;;;3.20;99.90;;;;;;4903940;29;20551;-70
2023/03/02 16:49:09;;;;;;;8.55;4.70;;;3.30;99.90;;;;;;4915614;29;20210;-70
2023/03/02 16:51:35;;;;;;;14.77;5.28;;;3.30;99.90;;;;;;4915291;29;20257;-69
2023/03/02 16:54:02;;;;;;;6.53;3.30;;;3.30;99.90;;;;;;4913421;29;20207;-69
2023/03/02 16:56:31;;;;;;;3.53;3.00;;;3.20;99.90;;;;;;4890800;29;20208;-69
2023/03/02 16:58:57;;;;;;;2.80;1.95;;;3.20;99.90;;;;;;4889631;29;20218;-69
2023/03/02 17:01:24;;;;;;;4.05;2.65;;;3.20;99.90;;;;;;4885387;29;20234;-70
2023/03/02 17:03:52;;;;;;;6.22;2.50;;;3.20;99.90;;;;;;4904591;29;20228;-70
2023/03/02 17:06:22;;;;;;;6.03;5.60;;;3.20;99.90;;;;;;4915355;29;20281;-68
2023/03/02 17:08:49;;;;;;;6.32;2.80;;;3.20;99.90;;;;;;4899145;29;20267;-68
2023/03/02 17:11:16;;;;;;;3.50;3.25;;;3.10;99.90;;;;;;4895695;29;20366;-69
2023/03/02 17:13:44;;;;;;;4.15;3.50;;;3.10;99.90;;;;;;4895029;29;20207;-68
2023/03/02 17:16:11;;;;;;;6.18;5.55;;;3.10;99.90;;;;;;4895436;29;20291;-70
2023/03/02 17:18:39;;;;;;;7.05;2.40;;;3.10;99.90;;;;;;4891597;29;20215;-69
2023/03/02 17:21:06;;;;;;;3.97;3.67;;;3.10;99.90;;;;;;4945362;23;20495;-72
2023/03/02 17:23:33;;;;;;;1.70;1.70;;;3.10;99.90;;;;;;4939148;29;20324;-72
2023/03/02 17:26:00;;;;;;;2.47;2.38;;;3.10;99.90;;;;;;4938558;29;20229;-71
2023/03/02 17:28:27;;;;;;;14.30;2.83;;;3.10;99.90;;;;;;4943425;29;20299;-71
2023/03/02 17:30:55;;;;;;;4.78;3.80;;;3.10;99.90;;;;;;4947909;29;20249;-71
2023/03/02 17:33:21;;;;;;;7.95;4.05;;;3.10;99.90;;;;;;4939108;28;20228;-72
2023/03/02 17:35:48;;;;;;;3.67;3.38;;;3.00;99.90;;;;;;4929136;29;20225;-72
2023/03/02 17:38:15;;;;;;;8.75;5.45;;;3.00;99.90;;;;;;4945791;29;20304;-71
2023/03/02 17:40:42;;;;;;;3.45;3.15;;;3.00;99.90;;;;;;4942299;29;20226;-71
2023/03/02 17:43:11;;;;;;;4.03;3.80;;;3.00;99.90;;;;;;4924798;29;20221;-70
2023/03/02 17:45:38;;;;;;;2.13;1.45;;;3.00;99.90;;;;;;4935407;29;20759;-70
2023/03/02 17:48:06;;;;;;;6.53;3.05;;;3.00;99.90;;;;;;4938991;29;20210;-70
2023/03/02 17:50:33;;;;;;;3.67;3.50;;;3.00;99.90;;;;;;4925874;29;20237;-71
2023/03/02 17:53:00;;;;;;;9.73;5.20;;;3.00;99.90;;;;;;4939124;29;20210;-70
2023/03/02 17:55:27;;;;;;;2.50;1.67;;;3.00;99.90;;;;;;4936592;29;20210;-69
2023/03/02 17:57:54;;;;;;;5.07;3.72;;;3.00;99.90;;;;;;4923784;29;20211;-71
2023/03/02 18:00:22;;;;;;;4.00;3.55;;;3.00;99.90;;;;;;4921828;29;20319;-71
2023/03/02 18:02:50;;;;;;;3.92;3.63;;;3.00;99.90;;;;;;4932521;29;20207;-68
2023/03/02 18:05:20;;;;;;;5.38;4.93;;;3.00;99.90;;;;;;4935314;29;20241;-69
2023/03/02 18:07:47;;;;;;;6.82;6.32;;;3.00;99.90;;;;;;4929537;29;20230;-71